sensor_id;sensor_type;location;lat;lon;timestamp;P1;durP1;ratioP1;P2;durP2;ratioP2
48963;SDS011;34776;48.180;16.420;2023-09-12T00:00:55;10.43;;;7.85;;
48963;SDS011;34776;48.180;16.420;2023-09-12T00:03:21;14.15;;;7.50;;
48963;SDS011;34776;48.180;16.420;2023-09-12T00:05:51;11.95;;;7.97;;
48963;SDS011;34776;48.180;16.420;2023-09-12T00:08:19;9.27;;;7.78;;
48963;SDS011;34776;48.180;16.420;2023-09-12T00:10:44;13.25;;;7.75;;
48963;SDS011;34776;48.180;16.420;2023-09-12T00:13:11;10.60;;;7.53;;
48963;SDS011;34776;48.180;16.420;2023-09-12T00:15:37;12.55;;;7.65;;
48963;SDS011;34776;48.180;16.420;2023-09-12T00:18:05;14.30;;;7.35;;
48963;SDS011;34776;48.180;16.420;2023-09-12T00:20:35;12.57;;;7.55;;
48963;SDS011;34776;48.180;16.420;2023-09-12T00:23:00;14.85;;;7.75;;
48963;SDS011;34776;48.180;16.420;2023-09-12T00:25:26;13.60;;;7.70;;
48963;SDS011;34776;48.180;16.420;2023-09-12T00:27:54;11.05;;;7.28;;
48963;SDS011;34776;48.180;16.420;2023-09-12T00:30:21;12.35;;;7.28;;
48963;SDS011;34776;48.180;16.420;2023-09-12T00:32:46;10.93;;;7.75;;
48963;SDS011;34776;48.180;16.420;2023-09-12T00:35:11;13.80;;;7.72;;
48963;SDS011;34776;48.180;16.420;2023-09-12T00:37:37;12.90;;;7.70;;
48963;SDS011;34776;48.180;16.420;2023-09-12T00:40:03;9.85;;;7.68;;
48963;SDS011;34776;48.180;16.420;2023-09-12T00:42:29;15.52;;;8.13;;
48963;SDS011;34776;48.180;16.420;2023-09-12T00:44:54;12.13;;;7.75;;
48963;SDS011;34776;48.180;16.420;2023-09-12T00:47:20;10.27;;;7.60;;
48963;SDS011;34776;48.180;16.420;2023-09-12T00:49:47;12.77;;;8.07;;
48963;SDS011;34776;48.180;16.420;2023-09-12T00:52:15;17.25;;;8.27;;
48963;SDS011;34776;48.180;16.420;2023-09-12T00:54:41;15.35;;;7.97;;
48963;SDS011;34776;48.180;16.420;2023-09-12T00:57:08;10.98;;;8.20;;
48963;SDS011;34776;48.180;16.420;2023-09-12T00:59:33;9.70;;;7.65;;
48963;SDS011;34776;48.180;16.420;2023-09-12T01:01:59;12.40;;;8.68;;
48963;SDS011;34776;48.180;16.420;2023-09-12T01:04:27;12.38;;;8.18;;
48963;SDS011;34776;48.180;16.420;2023-09-12T01:06:54;10.25;;;7.47;;
48963;SDS011;34776;48.180;16.420;2023-09-12T01:09:20;11.02;;;7.50;;
48963;SDS011;34776;48.180;16.420;2023-09-12T01:11:46;13.27;;;8.18;;
48963;SDS011;34776;48.180;16.420;2023-09-12T01:14:12;10.68;;;8.43;;
48963;SDS011;34776;48.180;16.420;2023-09-12T01:16:38;15.25;;;9.00;;
48963;SDS011;34776;48.180;16.420;2023-09-12T01:19:03;17.10;;;7.90;;
48963;SDS011;34776;48.180;16.420;2023-09-12T01:29:51;9.60;;;7.75;;
48963;SDS011;34776;48.180;16.420;2023-09-12T01:32:21;9.88;;;7.35;;
48963;SDS011;34776;48.180;16.420;2023-09-12T01:34:47;8.00;;;7.20;;
48963;SDS011;34776;48.180;16.420;2023-09-12T01:37:13;11.45;;;7.68;;
48963;SDS011;34776;48.180;16.420;2023-09-12T01:39:40;10.02;;;7.25;;
48963;SDS011;34776;48.180;16.420;2023-09-12T01:42:06;9.05;;;7.50;;
48963;SDS011;34776;48.180;16.420;2023-09-12T01:44:36;11.15;;;7.85;;
48963;SDS011;34776;48.180;16.420;2023-09-12T01:47:04;10.10;;;8.05;;
48963;SDS011;34776;48.180;16.420;2023-09-12T01:49:31;12.10;;;7.93;;
48963;SDS011;34776;48.180;16.420;2023-09-12T01:52:00;12.40;;;7.47;;
48963;SDS011;34776;48.180;16.420;2023-09-12T01:54:27;8.63;;;7.72;;
48963;SDS011;34776;48.180;16.420;2023-09-12T01:56:54;9.85;;;8.15;;
48963;SDS011;34776;48.180;16.420;2023-09-12T01:59:22;9.55;;;7.88;;
48963;SDS011;34776;48.180;16.420;2023-09-12T02:01:50;12.02;;;7.65;;
48963;SDS011;34776;48.180;16.420;2023-09-12T02:04:16;14.82;;;8.00;;
48963;SDS011;34776;48.180;16.420;2023-09-12T02:06:44;8.18;;;6.90;;
48963;SDS011;34776;48.180;16.420;2023-09-12T02:09:10;11.35;;;7.43;;
48963;SDS011;34776;48.180;16.420;2023-09-12T02:11:35;11.10;;;7.60;;
48963;SDS011;34776;48.180;16.420;2023-09-12T02:14:00;8.23;;;7.05;;
48963;SDS011;34776;48.180;16.420;2023-09-12T02:16:26;9.07;;;7.70;;
48963;SDS011;34776;48.180;16.420;2023-09-12T02:18:51;11.35;;;7.57;;
48963;SDS011;34776;48.180;16.420;2023-09-12T02:21:18;8.98;;;8.07;;
48963;SDS011;34776;48.180;16.420;2023-09-12T02:23:44;15.15;;;8.00;;
48963;SDS011;34776;48.180;16.420;2023-09-12T02:26:09;12.77;;;8.15;;
48963;SDS011;34776;48.180;16.420;2023-09-12T02:28:35;9.65;;;8.07;;
48963;SDS011;34776;48.180;16.420;2023-09-12T02:31:00;13.68;;;8.52;;
48963;SDS011;34776;48.180;16.420;2023-09-12T02:33:26;10.30;;;7.57;;
48963;SDS011;34776;48.180;16.420;2023-09-12T02:35:51;10.77;;;7.90;;
48963;SDS011;34776;48.180;16.420;2023-09-12T02:38:17;11.93;;;8.35;;
48963;SDS011;34776;48.180;16.420;2023-09-12T02:40:43;11.55;;;7.90;;
48963;SDS011;34776;48.180;16.420;2023-09-12T02:43:08;9.07;;;7.90;;
48963;SDS011;34776;48.180;16.420;2023-09-12T02:45:33;11.65;;;8.15;;
48963;SDS011;34776;48.180;16.420;2023-09-12T02:48:01;8.65;;;7.63;;
48963;SDS011;34776;48.180;16.420;2023-09-12T02:50:28;12.35;;;8.48;;
48963;SDS011;34776;48.180;16.420;2023-09-12T02:52:53;11.68;;;8.10;;
48963;SDS011;34776;48.180;16.420;2023-09-12T02:55:19;11.80;;;8.25;;
48963;SDS011;34776;48.180;16.420;2023-09-12T02:57:45;13.02;;;8.90;;
48963;SDS011;34776;48.180;16.420;2023-09-12T03:00:11;10.77;;;9.02;;
48963;SDS011;34776;48.180;16.420;2023-09-12T03:02:41;14.57;;;8.45;;
48963;SDS011;34776;48.180;16.420;2023-09-12T03:05:06;9.65;;;8.68;;
48963;SDS011;34776;48.180;16.420;2023-09-12T03:07:32;13.30;;;8.50;;
48963;SDS011;34776;48.180;16.420;2023-09-12T03:09:57;10.18;;;8.70;;
48963;SDS011;34776;48.180;16.420;2023-09-12T03:12:25;10.63;;;7.88;;
48963;SDS011;34776;48.180;16.420;2023-09-12T03:14:50;12.82;;;8.85;;
48963;SDS011;34776;48.180;16.420;2023-09-12T03:17:16;10.77;;;8.18;;
48963;SDS011;34776;48.180;16.420;2023-09-12T03:19:42;10.48;;;9.13;;
48963;SDS011;34776;48.180;16.420;2023-09-12T03:22:08;15.88;;;9.40;;
48963;SDS011;34776;48.180;16.420;2023-09-12T03:24:34;11.50;;;8.90;;
48963;SDS011;34776;48.180;16.420;2023-09-12T03:27:00;13.25;;;8.77;;
48963;SDS011;34776;48.180;16.420;2023-09-12T03:29:25;13.23;;;9.27;;
48963;SDS011;34776;48.180;16.420;2023-09-12T03:31:51;13.35;;;8.90;;
48963;SDS011;34776;48.180;16.420;2023-09-12T03:34:17;17.90;;;9.68;;
48963;SDS011;34776;48.180;16.420;2023-09-12T03:36:42;16.40;;;9.07;;
48963;SDS011;34776;48.180;16.420;2023-09-12T03:39:08;14.73;;;8.68;;
48963;SDS011;34776;48.180;16.420;2023-09-12T03:41:36;10.05;;;8.75;;
48963;SDS011;34776;48.180;16.420;2023-09-12T03:44:01;13.60;;;8.55;;
48963;SDS011;34776;48.180;16.420;2023-09-12T03:46:27;14.90;;;8.38;;
48963;SDS011;34776;48.180;16.420;2023-09-12T03:48:52;14.50;;;9.25;;
48963;SDS011;34776;48.180;16.420;2023-09-12T03:51:18;14.52;;;9.73;;
48963;SDS011;34776;48.180;16.420;2023-09-12T03:53:43;13.13;;;9.40;;
48963;SDS011;34776;48.180;16.420;2023-09-12T03:56:08;11.02;;;8.95;;
48963;SDS011;34776;48.180;16.420;2023-09-12T03:58:37;11.88;;;8.95;;
48963;SDS011;34776;48.180;16.420;2023-09-12T04:01:05;12.80;;;8.70;;
48963;SDS011;34776;48.180;16.420;2023-09-12T04:03:30;11.18;;;9.05;;
48963;SDS011;34776;48.180;16.420;2023-09-12T04:05:56;12.25;;;8.68;;
48963;SDS011;34776;48.180;16.420;2023-09-12T04:08:22;17.10;;;8.68;;
48963;SDS011;34776;48.180;16.420;2023-09-12T04:10:49;13.88;;;9.20;;
48963;SDS011;34776;48.180;16.420;2023-09-12T04:13:14;14.98;;;8.90;;
48963;SDS011;34776;48.180;16.420;2023-09-12T04:15:40;12.48;;;9.52;;
48963;SDS011;34776;48.180;16.420;2023-09-12T04:18:05;16.20;;;9.35;;
48963;SDS011;34776;48.180;16.420;2023-09-12T04:20:36;16.50;;;9.68;;
48963;SDS011;34776;48.180;16.420;2023-09-12T04:23:02;10.30;;;9.10;;
48963;SDS011;34776;48.180;16.420;2023-09-12T04:25:28;17.42;;;9.88;;
48963;SDS011;34776;48.180;16.420;2023-09-12T04:27:55;11.18;;;9.68;;
48963;SDS011;34776;48.180;16.420;2023-09-12T04:30:20;19.83;;;12.02;;
48963;SDS011;34776;48.180;16.420;2023-09-12T04:32:45;14.75;;;10.43;;
48963;SDS011;34776;48.180;16.420;2023-09-12T04:40:18;14.90;;;10.75;;
48963;SDS011;34776;48.180;16.420;2023-09-12T04:42:45;17.85;;;11.55;;
48963;SDS011;34776;48.180;16.420;2023-09-12T04:45:11;17.67;;;10.52;;
48963;SDS011;34776;48.180;16.420;2023-09-12T04:47:36;14.63;;;10.95;;
48963;SDS011;34776;48.180;16.420;2023-09-12T04:50:02;16.25;;;10.85;;
48963;SDS011;34776;48.180;16.420;2023-09-12T04:52:27;13.80;;;11.52;;
48963;SDS011;34776;48.180;16.420;2023-09-12T04:54:53;16.90;;;11.18;;
48963;SDS011;34776;48.180;16.420;2023-09-12T04:57:18;15.15;;;10.27;;
48963;SDS011;34776;48.180;16.420;2023-09-12T04:59:45;17.10;;;11.38;;
48963;SDS011;34776;48.180;16.420;2023-09-12T05:02:11;13.20;;;10.57;;
48963;SDS011;34776;48.180;16.420;2023-09-12T05:04:37;15.20;;;10.20;;
48963;SDS011;34776;48.180;16.420;2023-09-12T05:07:02;13.95;;;9.50;;
48963;SDS011;34776;48.180;16.420;2023-09-12T05:09:29;15.02;;;11.27;;
48963;SDS011;34776;48.180;16.420;2023-09-12T05:11:54;17.70;;;10.60;;
48963;SDS011;34776;48.180;16.420;2023-09-12T05:14:20;18.70;;;9.82;;
48963;SDS011;34776;48.180;16.420;2023-09-12T05:16:47;15.05;;;10.52;;
48963;SDS011;34776;48.180;16.420;2023-09-12T05:19:22;16.52;;;10.60;;
48963;SDS011;34776;48.180;16.420;2023-09-12T05:32:02;13.57;;;10.38;;
48963;SDS011;34776;48.180;16.420;2023-09-12T05:34:29;11.80;;;10.07;;
48963;SDS011;34776;48.180;16.420;2023-09-12T05:36:56;13.43;;;11.27;;
48963;SDS011;34776;48.180;16.420;2023-09-12T05:39:23;13.25;;;11.23;;
48963;SDS011;34776;48.180;16.420;2023-09-12T05:41:50;16.33;;;11.98;;
48963;SDS011;34776;48.180;16.420;2023-09-12T05:44:16;17.02;;;12.02;;
48963;SDS011;34776;48.180;16.420;2023-09-12T05:46:46;14.07;;;12.25;;
48963;SDS011;34776;48.180;16.420;2023-09-12T05:49:13;16.00;;;11.85;;
48963;SDS011;34776;48.180;16.420;2023-09-12T05:51:39;15.73;;;11.23;;
48963;SDS011;34776;48.180;16.420;2023-09-12T05:54:04;17.90;;;11.00;;
48963;SDS011;34776;48.180;16.420;2023-09-12T05:56:30;14.90;;;10.27;;
48963;SDS011;34776;48.180;16.420;2023-09-12T05:58:57;13.52;;;10.05;;
48963;SDS011;34776;48.180;16.420;2023-09-12T06:01:23;15.45;;;10.82;;
48963;SDS011;34776;48.180;16.420;2023-09-12T06:03:48;12.80;;;10.73;;
48963;SDS011;34776;48.180;16.420;2023-09-12T06:06:14;12.35;;;11.02;;
48963;SDS011;34776;48.180;16.420;2023-09-12T06:08:39;15.52;;;11.88;;
48963;SDS011;34776;48.180;16.420;2023-09-12T06:11:05;16.00;;;11.95;;
48963;SDS011;34776;48.180;16.420;2023-09-12T06:13:32;18.30;;;12.40;;
48963;SDS011;34776;48.180;16.420;2023-09-12T06:15:58;13.52;;;12.13;;
48963;SDS011;34776;48.180;16.420;2023-09-12T06:18:23;15.00;;;11.68;;
48963;SDS011;34776;48.180;16.420;2023-09-12T06:20:50;27.40;;;23.30;;
48963;SDS011;34776;48.180;16.420;2023-09-12T06:23:15;19.40;;;13.98;;
48963;SDS011;34776;48.180;16.420;2023-09-12T06:25:41;23.08;;;12.68;;
48963;SDS011;34776;48.180;16.420;2023-09-12T06:28:08;20.70;;;12.75;;
48963;SDS011;34776;48.180;16.420;2023-09-12T06:30:34;18.60;;;11.68;;
48963;SDS011;34776;48.180;16.420;2023-09-12T06:32:59;20.85;;;11.68;;
48963;SDS011;34776;48.180;16.420;2023-09-12T06:35:25;17.30;;;11.20;;
48963;SDS011;34776;48.180;16.420;2023-09-12T06:37:50;14.70;;;11.55;;
48963;SDS011;34776;48.180;16.420;2023-09-12T06:40:15;14.95;;;12.05;;
48963;SDS011;34776;48.180;16.420;2023-09-12T06:42:41;15.45;;;11.30;;
48963;SDS011;34776;48.180;16.420;2023-09-12T06:45:07;13.40;;;11.82;;
48963;SDS011;34776;48.180;16.420;2023-09-12T06:47:32;18.88;;;11.05;;
48963;SDS011;34776;48.180;16.420;2023-09-12T06:49:58;15.18;;;10.10;;
48963;SDS011;34776;48.180;16.420;2023-09-12T06:52:23;14.40;;;9.82;;
48963;SDS011;34776;48.180;16.420;2023-09-12T06:54:48;11.93;;;9.88;;
48963;SDS011;34776;48.180;16.420;2023-09-12T06:57:13;11.05;;;9.23;;
48963;SDS011;34776;48.180;16.420;2023-09-12T06:59:39;11.70;;;8.68;;
48963;SDS011;34776;48.180;16.420;2023-09-12T07:02:04;8.60;;;7.43;;
48963;SDS011;34776;48.180;16.420;2023-09-12T07:04:30;11.20;;;8.10;;
